Trelipe, Minnesota
Current Conditions -  °F | °C
As of 5:56 PM on Sunday 23 Nov 2014 (Local Time) from KXVG Reporting Station
Light Rain Light Rain  
Wind Chill: 36°   Ceiling: 4900
Heat Index: 36°   Visibility: 10mi
Dew Point: 34°   Wind: 3mph
Humidity: 93%   Direction: 270°W
Pressure: 29.38"   Gusts: NA
Location:  46.8459°N, 93.8976°W
Report Text: KXVG 232356Z AUTO 27003KT 10SM -RA SCT039 BKN049 OVC060 02/01 A2938 RMK AO2
Loading
Personal Weather Stations






























Interactive Weather Map New forecast layout! Learn more

10-Day Weather Forecast

Advertisements
Track Severe Weather on mobile